createdAt,value
2023-01-01T00:00:32.626Z,53.76
2023-01-01T00:03:01.071Z,53.71
2023-01-01T00:05:29.554Z,53.99
2023-01-01T00:08:04.240Z,54.00
2023-01-01T00:10:34.173Z,53.88
2023-01-01T00:13:02.775Z,54.37
2023-01-01T00:15:35.176Z,54.27
2023-01-01T00:18:03.664Z,54.08
2023-01-01T00:20:35.365Z,54.18
2023-01-01T00:23:05.597Z,54.52
2023-01-01T00:25:34.100Z,54.28
2023-01-01T00:28:03.143Z,54.70
2023-01-01T00:30:32.952Z,54.47
2023-01-01T00:33:01.374Z,54.36
2023-01-01T00:35:29.916Z,54.16
2023-01-01T00:37:58.397Z,54.20
2023-01-01T00:40:26.862Z,54.13
2023-01-01T00:42:55.348Z,53.99
2023-01-01T00:45:23.971Z,54.01
2023-01-01T00:47:55.345Z,54.38
2023-01-01T00:50:24.847Z,54.14
2023-01-01T00:52:53.309Z,54.21
2023-01-01T00:55:21.966Z,54.07
2023-01-01T00:57:50.437Z,54.34
2023-01-01T01:00:20.356Z,54.29
2023-01-01T01:02:49.029Z,54.41
2023-01-01T01:05:19.270Z,54.21
2023-01-01T01:07:47.773Z,54.56
2023-01-01T01:10:17.046Z,54.61
2023-01-01T01:12:45.559Z,54.39
2023-01-01T01:15:14.284Z,54.42
2023-01-01T01:17:42.764Z,54.72
2023-01-01T01:20:12.872Z,54.61
2023-01-01T01:22:42.720Z,54.19
2023-01-01T01:25:11.909Z,54.66
2023-01-01T01:27:40.356Z,54.65
2023-01-01T01:30:10.705Z,54.69
2023-01-01T01:32:39.235Z,54.53
2023-01-01T01:35:08.810Z,54.10
2023-01-01T01:37:37.353Z,54.33
2023-01-01T01:40:09.454Z,54.11
2023-01-01T01:42:37.959Z,54.64
2023-01-01T01:45:11.600Z,54.41
2023-01-01T01:47:47.963Z,54.41
2023-01-01T01:50:23.505Z,54.65
2023-01-01T01:53:04.389Z,54.53
2023-01-01T01:55:38.735Z,54.69
2023-01-01T01:58:09.266Z,54.49
2023-01-01T02:00:38.174Z,54.87
2023-01-01T02:03:09.571Z,54.82
2023-01-01T02:05:40.341Z,54.72
2023-01-01T02:08:09.954Z,54.62
2023-01-01T02:10:40.218Z,54.74
2023-01-01T02:13:08.956Z,54.81
2023-01-01T02:15:45.637Z,54.56
2023-01-01T02:18:19.427Z,54.78
2023-01-01T02:20:55.553Z,54.94
2023-01-01T02:24:16.400Z,55.05
2023-01-01T02:26:55.771Z,54.73
2023-01-01T02:29:45.615Z,55.04
2023-01-01T02:32:21.233Z,54.68
2023-01-01T02:34:54.802Z,54.96
2023-01-01T02:37:25.565Z,54.68
2023-01-01T02:39:59.680Z,54.96
2023-01-01T02:42:30.559Z,54.77
2023-01-01T02:45:01.354Z,55.13
2023-01-01T02:47:29.834Z,54.58
2023-01-01T02:50:07.383Z,54.73
2023-01-01T02:52:57.418Z,55.18
2023-01-01T02:55:38.210Z,55.07
2023-01-01T02:58:35.383Z,55.00
2023-01-01T03:01:13.811Z,54.87
2023-01-01T03:03:50.937Z,55.12
2023-01-01T03:06:33.591Z,55.22
2023-01-01T03:09:13.661Z,55.16
2023-01-01T03:11:53.728Z,55.00
2023-01-01T03:14:30.234Z,54.93
2023-01-01T03:17:07.797Z,54.93
2023-01-01T03:19:40.535Z,55.22
2023-01-01T03:22:12.142Z,54.85
2023-01-01T03:24:44.624Z,55.43
2023-01-01T03:27:18.059Z,55.14
2023-01-01T03:29:49.026Z,55.21
2023-01-01T03:32:46.491Z,54.99
2023-01-01T03:35:17.049Z,55.24
2023-01-01T03:37:50.226Z,54.97
2023-01-01T03:40:21.874Z,55.30
2023-01-01T03:42:56.275Z,55.26
2023-01-01T03:45:30.664Z,54.93
2023-01-01T03:48:02.074Z,55.25
2023-01-01T03:50:42.097Z,55.36
2023-01-01T03:53:20.463Z,55.47
2023-01-01T03:55:53.567Z,55.50
2023-01-01T03:58:32.797Z,55.22
2023-01-01T04:01:07.828Z,55.24
2023-01-01T04:03:39.170Z,55.21
2023-01-01T04:06:08.817Z,55.37
2023-01-01T04:08:37.833Z,55.26
2023-01-01T04:11:28.952Z,55.24
2023-01-01T04:13:57.436Z,55.13
2023-01-01T04:16:25.968Z,55.46
2023-01-01T04:18:55.814Z,55.29
2023-01-01T04:21:24.256Z,55.04
2023-01-01T04:23:52.893Z,55.38
2023-01-01T04:26:21.353Z,55.17
2023-01-01T04:28:49.789Z,55.01
2023-01-01T04:31:18.205Z,55.15
2023-01-01T04:33:46.629Z,55.30
2023-01-01T04:36:16.424Z,55.31
2023-01-01T04:38:44.840Z,55.54
2023-01-01T04:41:13.227Z,55.10
2023-01-01T04:43:41.648Z,55.12
2023-01-01T04:46:11.056Z,55.29
2023-01-01T04:48:39.555Z,55.31
2023-01-01T04:51:08.176Z,55.30
2023-01-01T04:53:38.088Z,55.46
2023-01-01T04:56:07.607Z,55.22
2023-01-01T04:58:37.599Z,55.37
2023-01-01T05:01:07.144Z,55.36
2023-01-01T05:03:35.852Z,55.20
2023-01-01T05:06:07.275Z,55.09
2023-01-01T05:08:40.255Z,55.16
2023-01-01T05:11:12.073Z,55.56
2023-01-01T05:13:43.528Z,55.51
2023-01-01T05:16:14.689Z,55.10
2023-01-01T05:18:44.103Z,55.53
2023-01-01T05:21:16.761Z,55.12
2023-01-01T05:23:46.790Z,55.22
2023-01-01T05:26:17.780Z,55.26
2023-01-01T05:28:46.911Z,55.36
2023-01-01T05:31:18.269Z,55.39
2023-01-01T05:33:46.784Z,55.59
2023-01-01T05:36:18.913Z,55.29
2023-01-01T05:38:48.977Z,55.45
2023-01-01T05:41:20.261Z,55.19
2023-01-01T05:43:49.220Z,55.33
2023-01-01T05:46:21.223Z,55.36
2023-01-01T05:48:50.369Z,55.45
2023-01-01T05:51:22.109Z,55.06
2023-01-01T05:53:52.712Z,55.41
2023-01-01T05:56:21.407Z,55.16
2023-01-01T05:58:49.860Z,54.74
2023-01-01T06:01:21.535Z,55.09
2023-01-01T06:03:50.745Z,55.05
2023-01-01T06:06:21.837Z,54.83
2023-01-01T06:08:56.901Z,55.35
2023-01-01T06:11:25.797Z,54.95
2023-01-01T06:13:55.260Z,54.70
2023-01-01T06:16:24.424Z,55.04
2023-01-01T06:18:53.523Z,54.68
2023-01-01T06:21:25.258Z,54.64
2023-01-01T06:23:58.001Z,54.78
2023-01-01T06:26:29.628Z,55.22
2023-01-01T06:28:59.205Z,55.15
2023-01-01T06:31:28.822Z,54.92
2023-01-01T06:33:57.574Z,54.86
2023-01-01T06:36:27.173Z,54.81
2023-01-01T06:38:58.687Z,55.25
2023-01-01T06:41:29.505Z,54.99
2023-01-01T06:43:58.919Z,54.94
2023-01-01T06:46:30.351Z,55.20
2023-01-01T06:49:00.264Z,54.98
2023-01-01T06:51:31.377Z,55.17
2023-01-01T06:54:03.301Z,55.19
2023-01-01T06:56:32.379Z,55.05
2023-01-01T06:59:01.252Z,55.29
2023-01-01T07:01:31.968Z,54.88
2023-01-01T07:04:02.913Z,54.94
2023-01-01T07:06:33.799Z,54.79
2023-01-01T07:09:03.792Z,55.20
2023-01-01T07:11:32.559Z,54.72
2023-01-01T07:14:01.080Z,55.13
2023-01-01T07:16:29.805Z,54.88
2023-01-01T07:18:58.485Z,55.27
2023-01-01T07:21:31.582Z,55.03
2023-01-01T07:24:03.753Z,54.77
2023-01-01T07:26:34.207Z,54.91
2023-01-01T07:29:07.349Z,54.70
2023-01-01T07:31:36.967Z,55.20
2023-01-01T07:34:05.773Z,55.05
2023-01-01T07:36:34.461Z,55.14
2023-01-01T07:39:04.257Z,55.02
2023-01-01T07:41:32.698Z,54.95
2023-01-01T07:44:01.339Z,54.75
2023-01-01T07:46:30.313Z,54.91
2023-01-01T07:48:58.843Z,54.84
2023-01-01T07:51:27.803Z,55.06
2023-01-01T07:54:00.679Z,54.78
2023-01-01T07:56:34.751Z,54.64
2023-01-01T07:59:03.347Z,54.88
2023-01-01T08:01:31.926Z,54.79
2023-01-01T08:04:00.451Z,54.93
2023-01-01T08:06:28.893Z,54.41
2023-01-01T08:08:57.438Z,54.62
2023-01-01T08:11:25.865Z,54.60
2023-01-01T08:13:55.653Z,54.49
2023-01-01T08:16:24.166Z,54.49
2023-01-01T08:18:52.643Z,54.58
2023-01-01T08:21:21.029Z,54.55
2023-01-01T08:23:49.411Z,54.40
2023-01-01T08:26:19.643Z,54.64
2023-01-01T08:28:52.134Z,54.40
2023-01-01T08:31:26.942Z,54.75
2023-01-01T08:33:55.453Z,54.31
2023-01-01T08:36:24.084Z,54.57
2023-01-01T08:38:52.511Z,54.89
2023-01-01T08:41:20.974Z,54.90
2023-01-01T08:43:49.363Z,54.56
2023-01-01T08:46:17.926Z,54.50
2023-01-01T08:48:47.743Z,54.60
2023-01-01T08:51:16.238Z,54.77
2023-01-01T08:53:50.635Z,54.61
2023-01-01T08:56:20.477Z,54.56
2023-01-01T08:58:49.495Z,54.58
2023-01-01T09:01:21.620Z,54.53
2023-01-01T09:03:51.693Z,54.56
2023-01-01T09:06:20.234Z,54.24
2023-01-01T09:08:48.771Z,54.49
2023-01-01T09:11:25.283Z,54.89
2023-01-01T09:13:54.050Z,54.46
2023-01-01T09:16:23.768Z,54.56
2023-01-01T09:18:53.653Z,54.47
2023-01-01T09:21:22.459Z,54.23
2023-01-01T09:23:50.957Z,54.20
2023-01-01T09:26:19.370Z,54.17
2023-01-01T09:28:47.785Z,54.22
2023-01-01T09:31:16.247Z,54.03
2023-01-01T09:33:44.759Z,53.94
2023-01-01T09:36:16.586Z,53.86
2023-01-01T09:38:49.406Z,53.72
2023-01-01T09:41:27.201Z,53.81
2023-01-01T09:44:05.678Z,53.61
2023-01-01T09:46:34.277Z,53.46
2023-01-01T09:49:08.064Z,53.38
2023-01-01T09:51:49.947Z,53.24
2023-01-01T09:54:30.016Z,53.28
2023-01-01T09:57:01.417Z,53.25
2023-01-01T09:59:31.131Z,53.07
2023-01-01T10:02:11.860Z,53.16
2023-01-01T10:04:59.072Z,53.31
2023-01-01T10:07:37.082Z,53.05
2023-01-01T10:10:22.207Z,52.95
2023-01-01T10:13:00.652Z,53.03
2023-01-01T10:15:35.052Z,52.90
2023-01-01T10:18:15.049Z,52.85
2023-01-01T10:20:49.951Z,52.63
2023-01-01T10:23:26.118Z,52.51
2023-01-01T10:25:58.336Z,52.27
2023-01-01T10:28:34.116Z,52.20
2023-01-01T10:31:17.119Z,52.04
2023-01-01T10:33:47.536Z,51.43
2023-01-01T10:36:20.626Z,51.60
2023-01-01T10:38:52.023Z,51.21
2023-01-01T10:41:20.487Z,51.16
2023-01-01T10:43:49.566Z,50.98
2023-01-01T10:46:29.571Z,50.86
2023-01-01T10:49:12.647Z,50.75
2023-01-01T10:51:47.105Z,50.68
2023-01-01T10:54:36.477Z,50.49
2023-01-01T10:57:16.904Z,49.93
2023-01-01T10:59:53.502Z,49.39
2023-01-01T11:02:25.646Z,49.03
2023-01-01T11:05:14.980Z,48.50
2023-01-01T11:07:46.823Z,48.35
2023-01-01T11:10:22.185Z,48.15
2023-01-01T11:13:08.665Z,48.03
2023-01-01T11:15:41.420Z,47.75
2023-01-01T11:18:15.285Z,47.85
2023-01-01T11:20:44.073Z,47.32
2023-01-01T11:23:33.234Z,47.41
2023-01-01T11:26:08.206Z,47.31
2023-01-01T11:28:37.663Z,47.33
2023-01-01T11:31:18.729Z,47.28
2023-01-01T11:33:51.373Z,47.56
2023-01-01T11:36:25.578Z,47.92
2023-01-01T11:39:14.384Z,48.18
2023-01-01T11:41:47.969Z,47.64
2023-01-01T11:44:31.351Z,47.65
2023-01-01T11:47:00.431Z,46.97
2023-01-01T11:49:31.738Z,46.43
2023-01-01T11:52:00.685Z,45.77
2023-01-01T11:54:36.012Z,45.66
2023-01-01T11:57:13.348Z,45.26
2023-01-01T11:59:50.757Z,45.05
2023-01-01T12:02:31.671Z,44.89
2023-01-01T12:05:11.801Z,44.74
2023-01-01T12:07:42.582Z,43.78
2023-01-01T12:10:21.605Z,43.55
2023-01-01T12:12:58.831Z,43.01
2023-01-01T12:15:33.572Z,42.58
2023-01-01T12:18:12.459Z,42.01
2023-01-01T12:20:46.813Z,41.89
2023-01-01T12:23:18.192Z,41.80
2023-01-01T12:25:57.107Z,41.38
2023-01-01T12:28:39.900Z,41.63
2023-01-01T12:31:19.686Z,40.96
2023-01-01T12:34:11.811Z,40.93
2023-01-01T12:36:50.363Z,40.56
2023-01-01T12:40:16.085Z,40.82
2023-01-01T12:43:01.640Z,40.46
2023-01-01T12:46:13.865Z,40.60
2023-01-01T12:49:37.147Z,41.17
2023-01-01T12:52:27.013Z,41.98
2023-01-01T12:55:44.318Z,42.63
2023-01-01T12:58:18.981Z,43.03
2023-01-01T13:00:57.189Z,43.36
2023-01-01T13:03:30.655Z,43.62
2023-01-01T13:06:01.628Z,43.92
2023-01-01T13:08:30.086Z,44.29
2023-01-01T13:11:01.273Z,44.26
2023-01-01T13:13:29.828Z,44.40
2023-01-01T13:15:59.920Z,44.74
2023-01-01T13:18:33.546Z,44.69
2023-01-01T13:21:08.854Z,44.87
2023-01-01T13:23:48.676Z,45.13
2023-01-01T13:26:42.856Z,45.23
2023-01-01T13:29:43.491Z,45.63
2023-01-01T13:32:15.321Z,45.59
2023-01-01T13:35:03.469Z,45.87
2023-01-01T13:37:49.128Z,45.97
2023-01-01T13:40:58.893Z,46.04
2023-01-01T13:43:33.485Z,46.22
2023-01-01T13:46:14.260Z,46.33
2023-01-01T13:49:21.743Z,46.50
2023-01-01T13:52:26.649Z,46.78
2023-01-01T13:55:51.399Z,46.90
2023-01-01T13:59:26.304Z,46.96
2023-01-01T14:02:02.910Z,47.27
2023-01-01T14:04:43.938Z,47.22
2023-01-01T14:07:52.864Z,47.28
2023-01-01T14:10:28.999Z,47.39
2023-01-01T14:13:15.102Z,47.59
2023-01-01T14:15:55.061Z,47.61
2023-01-01T14:18:32.559Z,47.83
2023-01-01T14:21:02.772Z,47.66
2023-01-01T14:23:35.052Z,47.87
2023-01-01T14:26:09.786Z,48.03
2023-01-01T14:28:39.152Z,48.10
2023-01-01T14:31:20.457Z,48.09
2023-01-01T14:33:49.897Z,48.08
2023-01-01T14:36:24.541Z,48.33
2023-01-01T14:38:54.965Z,48.28
2023-01-01T14:41:29.253Z,48.40
2023-01-01T14:44:04.538Z,48.36
2023-01-01T14:46:33.725Z,48.64
2023-01-01T14:49:09.471Z,48.69
2023-01-01T14:51:44.837Z,48.74
2023-01-01T14:54:20.716Z,48.93
2023-01-01T14:56:51.203Z,48.88
2023-01-01T14:59:26.400Z,48.83
2023-01-01T15:02:03.546Z,48.99
2023-01-01T15:04:32.378Z,48.95
2023-01-01T15:07:02.935Z,49.12
2023-01-01T15:09:33.567Z,49.08
2023-01-01T15:12:02.690Z,49.21
2023-01-01T15:14:34.789Z,49.44
2023-01-01T15:17:05.149Z,49.49
2023-01-01T15:19:34.990Z,49.53
2023-01-01T15:22:11.838Z,49.53
2023-01-01T15:24:40.997Z,49.59
2023-01-01T15:27:22.216Z,49.63
2023-01-01T15:29:51.539Z,49.73
2023-01-01T15:32:28.452Z,49.97
2023-01-01T15:34:59.949Z,50.07
2023-01-01T15:37:38.079Z,50.13
2023-01-01T15:40:35.946Z,50.24
2023-01-01T15:43:22.401Z,50.27
2023-01-01T15:45:58.293Z,50.45
2023-01-01T15:48:37.609Z,50.47
2023-01-01T15:51:18.068Z,50.67
2023-01-01T15:53:57.846Z,50.62
2023-01-01T15:56:29.582Z,50.67
2023-01-01T15:59:08.770Z,50.71
2023-01-01T16:01:41.752Z,50.82
2023-01-01T16:04:19.556Z,51.09
2023-01-01T16:06:55.488Z,51.00
2023-01-01T16:09:25.459Z,50.97
2023-01-01T16:11:55.991Z,51.10
2023-01-01T16:14:24.600Z,51.31
2023-01-01T16:16:57.447Z,51.19
2023-01-01T16:19:26.697Z,51.25
2023-01-01T16:21:55.164Z,51.32
2023-01-01T16:24:25.264Z,51.57
2023-01-01T16:26:53.833Z,51.43
2023-01-01T16:29:22.324Z,51.53
2023-01-01T16:31:52.971Z,51.45
2023-01-01T16:34:21.597Z,51.70
2023-01-01T16:36:50.086Z,51.63
2023-01-01T16:39:18.591Z,51.71
2023-01-01T16:41:48.445Z,52.04
2023-01-01T16:44:17.680Z,52.11
2023-01-01T16:46:46.315Z,52.11
2023-01-01T16:49:14.915Z,52.06
2023-01-01T16:51:44.256Z,51.93
2023-01-01T16:54:13.202Z,52.19
2023-01-01T16:56:41.641Z,52.18
2023-01-01T16:59:11.576Z,52.20
2023-01-01T17:01:40.220Z,52.33
2023-01-01T17:04:09.071Z,52.17
2023-01-01T17:06:39.874Z,52.45
2023-01-01T17:09:09.147Z,52.39
2023-01-01T17:11:39.391Z,52.50
2023-01-01T17:14:08.542Z,52.51
2023-01-01T17:16:39.887Z,52.60
2023-01-01T17:19:14.923Z,52.52
2023-01-01T17:21:45.898Z,52.58
2023-01-01T17:24:15.101Z,52.68
2023-01-01T17:26:43.667Z,52.75
2023-01-01T17:29:12.608Z,52.84
2023-01-01T17:31:44.009Z,52.87
2023-01-01T17:34:14.716Z,52.84
2023-01-01T17:36:45.330Z,52.70
2023-01-01T17:39:15.687Z,52.81
2023-01-01T17:41:45.780Z,52.88
2023-01-01T17:44:14.428Z,52.96
2023-01-01T17:46:44.856Z,53.00
2023-01-01T17:49:15.583Z,52.90
2023-01-01T17:51:44.042Z,52.91
2023-01-01T17:54:13.828Z,53.07
2023-01-01T17:56:43.225Z,52.99
2023-01-01T17:59:12.533Z,53.30
2023-01-01T18:01:42.275Z,53.14
2023-01-01T18:04:12.673Z,53.35
2023-01-01T18:06:44.257Z,53.51
2023-01-01T18:09:16.508Z,53.50
2023-01-01T18:11:45.514Z,53.34
2023-01-01T18:14:19.589Z,53.69
2023-01-01T18:16:52.369Z,53.53
2023-01-01T18:19:22.959Z,53.73
2023-01-01T18:21:52.207Z,53.86
2023-01-01T18:24:21.601Z,53.75
2023-01-01T18:26:50.244Z,53.91
2023-01-01T18:29:19.261Z,53.76
2023-01-01T18:31:48.956Z,53.79
2023-01-01T18:34:17.957Z,53.67
2023-01-01T18:36:47.864Z,53.90
2023-01-01T18:39:22.973Z,53.78
2023-01-01T18:42:10.181Z,53.92
2023-01-01T18:44:39.168Z,54.03
2023-01-01T18:47:17.590Z,53.98
2023-01-01T18:49:50.678Z,54.04
2023-01-01T18:52:27.247Z,53.82
2023-01-01T18:55:15.084Z,53.88
2023-01-01T18:57:47.278Z,53.81
2023-01-01T19:00:22.852Z,53.70
2023-01-01T19:03:00.074Z,53.68
2023-01-01T19:05:33.355Z,53.43
2023-01-01T19:08:16.104Z,53.51
2023-01-01T19:10:51.858Z,53.46
2023-01-01T19:13:24.321Z,53.61
2023-01-01T19:15:59.043Z,53.66
2023-01-01T19:18:32.319Z,53.59
2023-01-01T19:21:21.202Z,53.79
2023-01-01T19:23:56.586Z,53.76
2023-01-01T19:26:29.910Z,53.74
2023-01-01T19:29:03.780Z,53.94
2023-01-01T19:31:32.423Z,53.82
2023-01-01T19:34:01.054Z,53.99
2023-01-01T19:36:30.271Z,53.96
2023-01-01T19:39:00.932Z,54.24
2023-01-01T19:41:29.417Z,54.27
2023-01-01T19:43:58.005Z,54.29
2023-01-01T19:46:26.626Z,54.41
2023-01-01T19:48:55.431Z,54.22
2023-01-01T19:51:24.910Z,54.21
2023-01-01T19:53:56.653Z,54.48
2023-01-01T19:56:27.646Z,54.37
2023-01-01T19:58:58.123Z,54.78
2023-01-01T20:01:28.151Z,54.51
2023-01-01T20:03:59.355Z,54.52
2023-01-01T20:06:31.051Z,54.85
2023-01-01T20:09:06.337Z,54.91
2023-01-01T20:11:38.261Z,55.02
2023-01-01T20:14:08.530Z,55.19
2023-01-01T20:16:40.862Z,55.01
2023-01-01T20:19:11.881Z,55.06
2023-01-01T20:21:59.178Z,54.94
2023-01-01T20:24:31.904Z,55.01
2023-01-01T20:27:03.627Z,55.03
2023-01-01T20:29:44.360Z,54.79
2023-01-01T20:32:16.127Z,54.88
2023-01-01T20:34:46.440Z,54.94
2023-01-01T20:37:33.306Z,54.92
2023-01-01T20:40:03.485Z,55.07
2023-01-01T20:42:35.265Z,54.89
2023-01-01T20:45:05.719Z,55.16
2023-01-01T20:47:37.127Z,55.05
2023-01-01T20:50:10.180Z,55.00
2023-01-01T20:52:42.062Z,55.15
2023-01-01T20:55:15.311Z,54.96
2023-01-01T20:57:46.558Z,54.72
2023-01-01T21:00:17.650Z,54.88
2023-01-01T21:02:49.302Z,54.92
2023-01-01T21:05:19.604Z,54.96
2023-01-01T21:07:49.861Z,55.04
2023-01-01T21:10:20.168Z,54.87
2023-01-01T21:12:55.512Z,54.86
2023-01-01T21:15:25.164Z,54.86
2023-01-01T21:17:56.876Z,54.71
2023-01-01T21:20:38.771Z,54.91
2023-01-01T21:23:15.325Z,54.88
2023-01-01T21:25:51.683Z,54.70
2023-01-01T21:28:22.729Z,55.00
2023-01-01T21:30:54.228Z,55.07
2023-01-01T21:33:28.205Z,55.20
2023-01-01T21:35:56.956Z,55.27
2023-01-01T21:38:27.827Z,55.24
2023-01-01T21:40:58.829Z,55.30
2023-01-01T21:43:35.333Z,55.38
2023-01-01T21:46:35.076Z,55.31
2023-01-01T21:49:14.367Z,55.15
2023-01-01T21:51:50.893Z,55.28
2023-01-01T21:54:26.209Z,55.23
2023-01-01T21:57:00.894Z,55.39
2023-01-01T21:59:39.659Z,55.43
2023-01-01T22:02:39.623Z,55.62
2023-01-01T22:05:31.307Z,55.61
2023-01-01T22:08:00.264Z,55.67
2023-01-01T22:10:35.837Z,55.85
2023-01-01T22:13:14.690Z,55.73
2023-01-01T22:15:47.108Z,55.90
2023-01-01T22:18:27.065Z,55.92
2023-01-01T22:20:56.623Z,55.86
2023-01-01T22:23:47.679Z,55.95
2023-01-01T22:26:20.549Z,55.88
2023-01-01T22:28:56.828Z,55.99
2023-01-01T22:31:33.414Z,55.83
2023-01-01T22:34:06.697Z,55.86
2023-01-01T22:36:36.823Z,55.85
2023-01-01T22:39:21.946Z,56.10
2023-01-01T22:41:51.411Z,56.07
2023-01-01T22:44:19.956Z,56.06
2023-01-01T22:46:50.227Z,56.11
2023-01-01T22:49:23.392Z,56.03
2023-01-01T22:51:56.279Z,56.08
2023-01-01T22:54:24.790Z,56.03
2023-01-01T22:56:53.205Z,56.02
2023-01-01T22:59:21.774Z,56.12
2023-01-01T23:01:51.664Z,56.19
2023-01-01T23:04:20.235Z,56.02
2023-01-01T23:06:48.863Z,56.09
2023-01-01T23:09:17.380Z,56.16
2023-01-01T23:11:45.999Z,56.03
2023-01-01T23:14:36.928Z,56.24
2023-01-01T23:17:09.320Z,56.24
2023-01-01T23:19:37.848Z,56.09
2023-01-01T23:22:06.491Z,56.17
2023-01-01T23:24:35.624Z,56.06
2023-01-01T23:27:04.919Z,56.14
2023-01-01T23:29:34.612Z,56.17
2023-01-01T23:32:04.413Z,56.22
2023-01-01T23:34:34.895Z,56.14
2023-01-01T23:37:03.406Z,56.11
2023-01-01T23:39:31.883Z,56.45
2023-01-01T23:42:00.577Z,56.33
2023-01-01T23:44:29.167Z,56.35
2023-01-01T23:47:00.349Z,56.09
2023-01-01T23:49:29.701Z,56.05
2023-01-01T23:52:00.472Z,56.24
2023-01-01T23:54:28.955Z,56.34
2023-01-01T23:56:57.383Z,56.27
2023-01-01T23:59:25.881Z,56.23
